sensor_id;sensor_type;location;lat;lon;timestamp;P1;durP1;ratioP1;P2;durP2;ratioP2
21848;SDS011;11089;49.852;19.700;2023-03-14T00:01:29;2.20;;;1.60;;
21848;SDS011;11089;49.852;19.700;2023-03-14T00:04:30;3.05;;;2.00;;
21848;SDS011;11089;49.852;19.700;2023-03-14T00:07:33;4.18;;;1.70;;
21848;SDS011;11089;49.852;19.700;2023-03-14T00:10:37;3.72;;;1.85;;
21848;SDS011;11089;49.852;19.700;2023-03-14T00:13:38;2.80;;;1.92;;
21848;SDS011;11089;49.852;19.700;2023-03-14T00:16:39;7.25;;;2.05;;
21848;SDS011;11089;49.852;19.700;2023-03-14T00:19:40;4.43;;;2.00;;
21848;SDS011;11089;49.852;19.700;2023-03-14T00:22:41;2.17;;;1.60;;
21848;SDS011;11089;49.852;19.700;2023-03-14T00:25:42;2.13;;;1.70;;
21848;SDS011;11089;49.852;19.700;2023-03-14T00:28:43;4.60;;;1.92;;
21848;SDS011;11089;49.852;19.700;2023-03-14T00:31:45;3.85;;;1.98;;
21848;SDS011;11089;49.852;19.700;2023-03-14T00:34:46;5.20;;;2.10;;
21848;SDS011;11089;49.852;19.700;2023-03-14T00:37:46;3.83;;;1.73;;
21848;SDS011;11089;49.852;19.700;2023-03-14T00:40:47;4.22;;;1.70;;
21848;SDS011;11089;49.852;19.700;2023-03-14T00:43:49;5.30;;;1.90;;
21848;SDS011;11089;49.852;19.700;2023-03-14T00:46:50;1.98;;;1.52;;
21848;SDS011;11089;49.852;19.700;2023-03-14T00:49:51;4.93;;;1.88;;
21848;SDS011;11089;49.852;19.700;2023-03-14T00:52:52;7.20;;;2.83;;
21848;SDS011;11089;49.852;19.700;2023-03-14T00:55:53;2.83;;;1.83;;
21848;SDS011;11089;49.852;19.700;2023-03-14T00:58:54;3.60;;;1.90;;
21848;SDS011;11089;49.852;19.700;2023-03-14T01:01:56;2.97;;;2.25;;
21848;SDS011;11089;49.852;19.700;2023-03-14T01:04:57;3.75;;;2.00;;
21848;SDS011;11089;49.852;19.700;2023-03-14T01:07:58;4.45;;;2.13;;
21848;SDS011;11089;49.852;19.700;2023-03-14T01:10:59;2.60;;;1.88;;
21848;SDS011;11089;49.852;19.700;2023-03-14T01:14:00;3.67;;;2.25;;
21848;SDS011;11089;49.852;19.700;2023-03-14T01:17:02;2.60;;;2.17;;
21848;SDS011;11089;49.852;19.700;2023-03-14T01:20:03;7.25;;;2.75;;
21848;SDS011;11089;49.852;19.700;2023-03-14T01:23:07;3.83;;;2.28;;
21848;SDS011;11089;49.852;19.700;2023-03-14T01:26:09;4.22;;;2.17;;
21848;SDS011;11089;49.852;19.700;2023-03-14T01:29:11;4.43;;;2.10;;
21848;SDS011;11089;49.852;19.700;2023-03-14T01:32:12;3.88;;;2.05;;
21848;SDS011;11089;49.852;19.700;2023-03-14T01:35:14;4.20;;;2.25;;
21848;SDS011;11089;49.852;19.700;2023-03-14T01:38:15;4.32;;;2.22;;
21848;SDS011;11089;49.852;19.700;2023-03-14T01:41:18;3.80;;;1.88;;
21848;SDS011;11089;49.852;19.700;2023-03-14T01:44:24;4.38;;;1.88;;
21848;SDS011;11089;49.852;19.700;2023-03-14T01:47:25;3.38;;;2.00;;
21848;SDS011;11089;49.852;19.700;2023-03-14T01:50:27;2.53;;;1.85;;
21848;SDS011;11089;49.852;19.700;2023-03-14T01:53:28;2.35;;;1.73;;
21848;SDS011;11089;49.852;19.700;2023-03-14T01:56:30;2.80;;;1.50;;
21848;SDS011;11089;49.852;19.700;2023-03-14T01:59:31;2.08;;;1.60;;
21848;SDS011;11089;49.852;19.700;2023-03-14T02:02:33;3.10;;;1.90;;
21848;SDS011;11089;49.852;19.700;2023-03-14T02:05:35;3.60;;;2.05;;
21848;SDS011;11089;49.852;19.700;2023-03-14T02:08:39;4.50;;;1.73;;
21848;SDS011;11089;49.852;19.700;2023-03-14T02:11:40;4.78;;;1.80;;
21848;SDS011;11089;49.852;19.700;2023-03-14T02:14:42;5.22;;;1.70;;
21848;SDS011;11089;49.852;19.700;2023-03-14T02:17:47;2.97;;;1.90;;
21848;SDS011;11089;49.852;19.700;2023-03-14T02:24:15;1.55;;;1.42;;
21848;SDS011;11089;49.852;19.700;2023-03-14T02:27:32;2.90;;;1.77;;
21848;SDS011;11089;49.852;19.700;2023-03-14T02:30:33;3.50;;;1.67;;
21848;SDS011;11089;49.852;19.700;2023-03-14T02:33:35;2.90;;;1.77;;
21848;SDS011;11089;49.852;19.700;2023-03-14T02:36:38;2.83;;;1.80;;
21848;SDS011;11089;49.852;19.700;2023-03-14T02:39:41;4.25;;;1.70;;
21848;SDS011;11089;49.852;19.700;2023-03-14T02:42:44;3.42;;;1.80;;
21848;SDS011;11089;49.852;19.700;2023-03-14T02:45:46;2.70;;;1.77;;
21848;SDS011;11089;49.852;19.700;2023-03-14T02:48:56;3.97;;;1.83;;
21848;SDS011;11089;49.852;19.700;2023-03-14T02:52:02;2.38;;;1.50;;
21848;SDS011;11089;49.852;19.700;2023-03-14T02:55:03;3.67;;;1.55;;
21848;SDS011;11089;49.852;19.700;2023-03-14T02:58:04;4.75;;;2.10;;
21848;SDS011;11089;49.852;19.700;2023-03-14T03:01:05;3.90;;;2.10;;
21848;SDS011;11089;49.852;19.700;2023-03-14T03:04:06;4.55;;;2.17;;
21848;SDS011;11089;49.852;19.700;2023-03-14T03:07:07;3.88;;;2.15;;
21848;SDS011;11089;49.852;19.700;2023-03-14T03:10:08;4.57;;;1.73;;
21848;SDS011;11089;49.852;19.700;2023-03-14T03:13:10;6.07;;;2.00;;
21848;SDS011;11089;49.852;19.700;2023-03-14T03:16:11;6.28;;;2.65;;
21848;SDS011;11089;49.852;19.700;2023-03-14T03:19:13;5.30;;;2.42;;
21848;SDS011;11089;49.852;19.700;2023-03-14T03:22:16;3.85;;;1.90;;
21848;SDS011;11089;49.852;19.700;2023-03-14T03:25:16;3.65;;;1.90;;
21848;SDS011;11089;49.852;19.700;2023-03-14T03:28:18;3.78;;;1.88;;
21848;SDS011;11089;49.852;19.700;2023-03-14T03:31:19;2.22;;;1.60;;
21848;SDS011;11089;49.852;19.700;2023-03-14T03:34:20;3.70;;;1.88;;
21848;SDS011;11089;49.852;19.700;2023-03-14T03:37:21;4.30;;;1.90;;
21848;SDS011;11089;49.852;19.700;2023-03-14T03:40:22;2.83;;;1.55;;
21848;SDS011;11089;49.852;19.700;2023-03-14T03:43:23;3.10;;;1.63;;
21848;SDS011;11089;49.852;19.700;2023-03-14T03:46:24;2.35;;;1.60;;
21848;SDS011;11089;49.852;19.700;2023-03-14T03:49:28;3.08;;;1.95;;
21848;SDS011;11089;49.852;19.700;2023-03-14T03:52:30;2.30;;;1.58;;
21848;SDS011;11089;49.852;19.700;2023-03-14T03:55:31;1.90;;;1.48;;
21848;SDS011;11089;49.852;19.700;2023-03-14T03:58:32;3.40;;;1.77;;
21848;SDS011;11089;49.852;19.700;2023-03-14T04:01:33;1.73;;;1.50;;
21848;SDS011;11089;49.852;19.700;2023-03-14T04:04:34;2.90;;;1.55;;
21848;SDS011;11089;49.852;19.700;2023-03-14T04:07:34;3.13;;;1.60;;
21848;SDS011;11089;49.852;19.700;2023-03-14T04:10:35;3.30;;;1.80;;
21848;SDS011;11089;49.852;19.700;2023-03-14T04:13:37;7.22;;;2.25;;
21848;SDS011;11089;49.852;19.700;2023-03-14T04:16:38;6.45;;;2.20;;
21848;SDS011;11089;49.852;19.700;2023-03-14T04:19:39;3.15;;;2.22;;
21848;SDS011;11089;49.852;19.700;2023-03-14T04:22:40;6.18;;;2.00;;
21848;SDS011;11089;49.852;19.700;2023-03-14T04:25:41;2.33;;;1.63;;
21848;SDS011;11089;49.852;19.700;2023-03-14T04:28:42;4.57;;;2.40;;
21848;SDS011;11089;49.852;19.700;2023-03-14T04:31:43;4.25;;;2.17;;
21848;SDS011;11089;49.852;19.700;2023-03-14T04:34:43;4.57;;;2.85;;
21848;SDS011;11089;49.852;19.700;2023-03-14T04:37:44;3.38;;;1.85;;
21848;SDS011;11089;49.852;19.700;2023-03-14T04:40:49;4.55;;;2.20;;
21848;SDS011;11089;49.852;19.700;2023-03-14T04:43:50;4.60;;;2.40;;
21848;SDS011;11089;49.852;19.700;2023-03-14T04:46:51;8.70;;;3.45;;
21848;SDS011;11089;49.852;19.700;2023-03-14T04:49:51;7.72;;;3.85;;
21848;SDS011;11089;49.852;19.700;2023-03-14T04:52:52;6.07;;;3.00;;
21848;SDS011;11089;49.852;19.700;2023-03-14T04:55:54;7.03;;;3.65;;
21848;SDS011;11089;49.852;19.700;2023-03-14T04:58:56;7.15;;;3.17;;
21848;SDS011;11089;49.852;19.700;2023-03-14T05:01:57;5.90;;;3.00;;
21848;SDS011;11089;49.852;19.700;2023-03-14T05:04:58;6.55;;;2.90;;
21848;SDS011;11089;49.852;19.700;2023-03-14T05:07:59;5.78;;;2.60;;
21848;SDS011;11089;49.852;19.700;2023-03-14T05:11:00;5.25;;;2.60;;
21848;SDS011;11089;49.852;19.700;2023-03-14T05:14:00;5.10;;;2.60;;
21848;SDS011;11089;49.852;19.700;2023-03-14T05:17:01;5.80;;;2.92;;
21848;SDS011;11089;49.852;19.700;2023-03-14T05:20:03;6.53;;;2.90;;
21848;SDS011;11089;49.852;19.700;2023-03-14T05:23:12;6.90;;;4.13;;
21848;SDS011;11089;49.852;19.700;2023-03-14T05:26:13;9.50;;;4.38;;
21848;SDS011;11089;49.852;19.700;2023-03-14T05:29:16;6.80;;;2.60;;
21848;SDS011;11089;49.852;19.700;2023-03-14T05:32:17;4.72;;;2.30;;
21848;SDS011;11089;49.852;19.700;2023-03-14T05:35:18;3.90;;;2.05;;
21848;SDS011;11089;49.852;19.700;2023-03-14T05:38:19;4.15;;;2.05;;
21848;SDS011;11089;49.852;19.700;2023-03-14T05:41:22;4.22;;;2.30;;
21848;SDS011;11089;49.852;19.700;2023-03-14T05:44:23;6.47;;;2.28;;
21848;SDS011;11089;49.852;19.700;2023-03-14T05:47:24;5.85;;;2.20;;
21848;SDS011;11089;49.852;19.700;2023-03-14T05:50:25;3.25;;;2.10;;
21848;SDS011;11089;49.852;19.700;2023-03-14T05:53:26;4.20;;;2.05;;
21848;SDS011;11089;49.852;19.700;2023-03-14T05:56:29;3.30;;;1.90;;
21848;SDS011;11089;49.852;19.700;2023-03-14T05:59:30;4.53;;;2.40;;
21848;SDS011;11089;49.852;19.700;2023-03-14T06:02:31;4.93;;;2.15;;
21848;SDS011;11089;49.852;19.700;2023-03-14T06:05:31;4.47;;;2.28;;
21848;SDS011;11089;49.852;19.700;2023-03-14T06:08:32;8.00;;;2.75;;
21848;SDS011;11089;49.852;19.700;2023-03-14T06:11:34;5.25;;;2.78;;
21848;SDS011;11089;49.852;19.700;2023-03-14T06:14:35;5.47;;;2.47;;
21848;SDS011;11089;49.852;19.700;2023-03-14T06:17:36;4.10;;;2.40;;
21848;SDS011;11089;49.852;19.700;2023-03-14T06:20:37;4.60;;;2.67;;
21848;SDS011;11089;49.852;19.700;2023-03-14T06:23:42;5.18;;;2.80;;
21848;SDS011;11089;49.852;19.700;2023-03-14T06:26:43;4.43;;;2.45;;
21848;SDS011;11089;49.852;19.700;2023-03-14T06:29:44;9.18;;;3.40;;
21848;SDS011;11089;49.852;19.700;2023-03-14T06:32:45;6.28;;;2.85;;
21848;SDS011;11089;49.852;19.700;2023-03-14T06:35:46;6.18;;;2.45;;
21848;SDS011;11089;49.852;19.700;2023-03-14T06:38:47;3.40;;;1.90;;
21848;SDS011;11089;49.852;19.700;2023-03-14T06:41:47;4.43;;;2.42;;
21848;SDS011;11089;49.852;19.700;2023-03-14T06:44:48;6.05;;;2.50;;
21848;SDS011;11089;49.852;19.700;2023-03-14T06:47:49;3.22;;;2.55;;
21848;SDS011;11089;49.852;19.700;2023-03-14T06:50:50;3.65;;;2.60;;
21848;SDS011;11089;49.852;19.700;2023-03-14T06:53:51;6.22;;;2.70;;
21848;SDS011;11089;49.852;19.700;2023-03-14T06:56:52;4.45;;;2.30;;
21848;SDS011;11089;49.852;19.700;2023-03-14T06:59:53;4.82;;;2.30;;
21848;SDS011;11089;49.852;19.700;2023-03-14T07:02:54;5.90;;;2.47;;
21848;SDS011;11089;49.852;19.700;2023-03-14T07:05:55;4.60;;;2.70;;
21848;SDS011;11089;49.852;19.700;2023-03-14T07:08:56;5.15;;;2.40;;
21848;SDS011;11089;49.852;19.700;2023-03-14T07:11:57;3.60;;;2.15;;
21848;SDS011;11089;49.852;19.700;2023-03-14T07:14:58;4.05;;;2.33;;
21848;SDS011;11089;49.852;19.700;2023-03-14T07:17:59;6.25;;;2.13;;
21848;SDS011;11089;49.852;19.700;2023-03-14T07:21:00;3.60;;;2.85;;
21848;SDS011;11089;49.852;19.700;2023-03-14T07:24:01;6.22;;;2.30;;
21848;SDS011;11089;49.852;19.700;2023-03-14T07:27:02;7.50;;;3.83;;
21848;SDS011;11089;49.852;19.700;2023-03-14T07:30:04;5.07;;;2.60;;
21848;SDS011;11089;49.852;19.700;2023-03-14T07:33:06;6.95;;;3.35;;
21848;SDS011;11089;49.852;19.700;2023-03-14T07:36:07;8.20;;;3.00;;
21848;SDS011;11089;49.852;19.700;2023-03-14T07:39:08;6.55;;;3.10;;
21848;SDS011;11089;49.852;19.700;2023-03-14T07:42:09;11.23;;;3.85;;
21848;SDS011;11089;49.852;19.700;2023-03-14T07:45:11;6.05;;;3.00;;
21848;SDS011;11089;49.852;19.700;2023-03-14T07:48:12;7.82;;;3.33;;
21848;SDS011;11089;49.852;19.700;2023-03-14T07:51:13;5.47;;;3.40;;
21848;SDS011;11089;49.852;19.700;2023-03-14T07:54:14;7.75;;;3.00;;
21848;SDS011;11089;49.852;19.700;2023-03-14T07:57:15;6.32;;;3.10;;
21848;SDS011;11089;49.852;19.700;2023-03-14T08:00:16;6.13;;;2.80;;
21848;SDS011;11089;49.852;19.700;2023-03-14T08:03:18;6.57;;;2.85;;
21848;SDS011;11089;49.852;19.700;2023-03-14T08:06:19;5.80;;;2.75;;
21848;SDS011;11089;49.852;19.700;2023-03-14T08:09:20;8.48;;;3.72;;
21848;SDS011;11089;49.852;19.700;2023-03-14T08:12:21;8.45;;;3.55;;
21848;SDS011;11089;49.852;19.700;2023-03-14T08:15:22;7.35;;;3.40;;
21848;SDS011;11089;49.852;19.700;2023-03-14T08:18:24;11.77;;;4.90;;
21848;SDS011;11089;49.852;19.700;2023-03-14T08:21:24;9.18;;;4.72;;
21848;SDS011;11089;49.852;19.700;2023-03-14T08:24:26;7.20;;;3.47;;
21848;SDS011;11089;49.852;19.700;2023-03-14T08:27:27;7.50;;;3.05;;
21848;SDS011;11089;49.852;19.700;2023-03-14T08:30:27;6.95;;;2.67;;
21848;SDS011;11089;49.852;19.700;2023-03-14T08:33:29;4.53;;;2.60;;
21848;SDS011;11089;49.852;19.700;2023-03-14T08:36:30;4.30;;;2.67;;
21848;SDS011;11089;49.852;19.700;2023-03-14T08:39:31;9.75;;;4.18;;
21848;SDS011;11089;49.852;19.700;2023-03-14T08:42:32;30.17;;;12.10;;
21848;SDS011;11089;49.852;19.700;2023-03-14T08:45:33;10.82;;;4.18;;
21848;SDS011;11089;49.852;19.700;2023-03-14T08:48:34;7.00;;;3.60;;
21848;SDS011;11089;49.852;19.700;2023-03-14T08:51:35;10.73;;;3.85;;
21848;SDS011;11089;49.852;19.700;2023-03-14T08:54:36;8.80;;;3.85;;
21848;SDS011;11089;49.852;19.700;2023-03-14T08:57:37;9.07;;;3.60;;
21848;SDS011;11089;49.852;19.700;2023-03-14T09:00:38;6.95;;;4.10;;
21848;SDS011;11089;49.852;19.700;2023-03-14T09:03:39;5.85;;;3.13;;
21848;SDS011;11089;49.852;19.700;2023-03-14T09:06:40;5.80;;;3.30;;
21848;SDS011;11089;49.852;19.700;2023-03-14T09:09:42;40.17;;;12.38;;
21848;SDS011;11089;49.852;19.700;2023-03-14T09:12:43;19.98;;;8.60;;
21848;SDS011;11089;49.852;19.700;2023-03-14T09:15:44;11.40;;;5.63;;
21848;SDS011;11089;49.852;19.700;2023-03-14T09:18:44;4.85;;;3.15;;
21848;SDS011;11089;49.852;19.700;2023-03-14T09:21:45;7.50;;;4.00;;
21848;SDS011;11089;49.852;19.700;2023-03-14T09:24:46;7.53;;;3.70;;
21848;SDS011;11089;49.852;19.700;2023-03-14T09:27:47;4.20;;;2.83;;
21848;SDS011;11089;49.852;19.700;2023-03-14T09:30:48;10.50;;;3.50;;
21848;SDS011;11089;49.852;19.700;2023-03-14T09:33:49;5.50;;;3.40;;
21848;SDS011;11089;49.852;19.700;2023-03-14T09:36:50;4.05;;;2.97;;
21848;SDS011;11089;49.852;19.700;2023-03-14T09:39:51;5.28;;;3.05;;
21848;SDS011;11089;49.852;19.700;2023-03-14T09:42:52;5.45;;;3.25;;
21848;SDS011;11089;49.852;19.700;2023-03-14T09:45:55;5.10;;;3.00;;
21848;SDS011;11089;49.852;19.700;2023-03-14T09:48:58;20.85;;;7.65;;
21848;SDS011;11089;49.852;19.700;2023-03-14T09:55:17;5.75;;;2.97;;
21848;SDS011;11089;49.852;19.700;2023-03-14T09:58:22;5.43;;;2.72;;
21848;SDS011;11089;49.852;19.700;2023-03-14T10:01:26;4.75;;;2.55;;
21848;SDS011;11089;49.852;19.700;2023-03-14T10:04:28;5.00;;;2.95;;
21848;SDS011;11089;49.852;19.700;2023-03-14T10:07:31;5.05;;;2.80;;
21848;SDS011;11089;49.852;19.700;2023-03-14T10:10:32;5.70;;;2.65;;
21848;SDS011;11089;49.852;19.700;2023-03-14T10:13:33;3.08;;;2.50;;
21848;SDS011;11089;49.852;19.700;2023-03-14T10:16:36;4.93;;;2.72;;
21848;SDS011;11089;49.852;19.700;2023-03-14T10:19:50;7.32;;;2.55;;
21848;SDS011;11089;49.852;19.700;2023-03-14T10:22:56;4.38;;;2.65;;
21848;SDS011;11089;49.852;19.700;2023-03-14T10:26:07;3.95;;;2.78;;
21848;SDS011;11089;49.852;19.700;2023-03-14T10:29:13;4.28;;;2.42;;
21848;SDS011;11089;49.852;19.700;2023-03-14T10:32:18;5.32;;;3.03;;
21848;SDS011;11089;49.852;19.700;2023-03-14T10:35:21;6.93;;;3.17;;
21848;SDS011;11089;49.852;19.700;2023-03-14T10:38:25;5.65;;;3.17;;
21848;SDS011;11089;49.852;19.700;2023-03-14T10:41:30;6.28;;;3.38;;
21848;SDS011;11089;49.852;19.700;2023-03-14T10:44:33;7.30;;;3.60;;
21848;SDS011;11089;49.852;19.700;2023-03-14T10:47:35;6.38;;;3.13;;
21848;SDS011;11089;49.852;19.700;2023-03-14T10:50:48;4.13;;;2.80;;
21848;SDS011;11089;49.852;19.700;2023-03-14T10:54:12;4.18;;;2.95;;
21848;SDS011;11089;49.852;19.700;2023-03-14T10:57:19;6.88;;;3.10;;
21848;SDS011;11089;49.852;19.700;2023-03-14T11:00:21;5.40;;;3.33;;
21848;SDS011;11089;49.852;19.700;2023-03-14T11:03:23;4.18;;;2.53;;
21848;SDS011;11089;49.852;19.700;2023-03-14T11:09:45;3.75;;;2.67;;
21848;SDS011;11089;49.852;19.700;2023-03-14T11:19:32;2.83;;;2.20;;
21848;SDS011;11089;49.852;19.700;2023-03-14T11:22:48;4.32;;;2.65;;
21848;SDS011;11089;49.852;19.700;2023-03-14T11:26:13;5.43;;;3.25;;
21848;SDS011;11089;49.852;19.700;2023-03-14T11:29:27;6.18;;;3.28;;
21848;SDS011;11089;49.852;19.700;2023-03-14T11:36:06;3.60;;;2.40;;
21848;SDS011;11089;49.852;19.700;2023-03-14T11:39:13;5.35;;;3.22;;
21848;SDS011;11089;49.852;19.700;2023-03-14T11:42:17;11.32;;;3.65;;
21848;SDS011;11089;49.852;19.700;2023-03-14T11:45:19;3.80;;;2.83;;
21848;SDS011;11089;49.852;19.700;2023-03-14T11:48:37;3.67;;;2.35;;
21848;SDS011;11089;49.852;19.700;2023-03-14T11:51:55;4.15;;;2.65;;
21848;SDS011;11089;49.852;19.700;2023-03-14T11:58:29;4.97;;;2.90;;
21848;SDS011;11089;49.852;19.700;2023-03-14T12:01:40;8.82;;;2.78;;
21848;SDS011;11089;49.852;19.700;2023-03-14T12:11:47;6.53;;;2.97;;
21848;SDS011;11089;49.852;19.700;2023-03-14T12:15:00;6.28;;;3.55;;
21848;SDS011;11089;49.852;19.700;2023-03-14T12:18:12;7.13;;;4.00;;
21848;SDS011;11089;49.852;19.700;2023-03-14T12:24:49;6.63;;;4.57;;
21848;SDS011;11089;49.852;19.700;2023-03-14T12:30:54;4.82;;;3.28;;
21848;SDS011;11089;49.852;19.700;2023-03-14T12:44:34;8.82;;;4.22;;
21848;SDS011;11089;49.852;19.700;2023-03-14T12:50:37;6.85;;;4.20;;
21848;SDS011;11089;49.852;19.700;2023-03-14T12:56:55;5.63;;;3.25;;
21848;SDS011;11089;49.852;19.700;2023-03-14T13:00:22;7.18;;;3.78;;
21848;SDS011;11089;49.852;19.700;2023-03-14T13:03:37;7.72;;;3.30;;
21848;SDS011;11089;49.852;19.700;2023-03-14T13:06:52;9.60;;;5.13;;
21848;SDS011;11089;49.852;19.700;2023-03-14T13:10:02;5.28;;;3.40;;
21848;SDS011;11089;49.852;19.700;2023-03-14T13:13:16;6.10;;;3.67;;
21848;SDS011;11089;49.852;19.700;2023-03-14T13:16:22;5.05;;;3.28;;
21848;SDS011;11089;49.852;19.700;2023-03-14T13:19:24;5.95;;;3.30;;
21848;SDS011;11089;49.852;19.700;2023-03-14T13:22:28;9.70;;;4.80;;
21848;SDS011;11089;49.852;19.700;2023-03-14T13:25:33;31.85;;;12.35;;
21848;SDS011;11089;49.852;19.700;2023-03-14T13:28:36;9.50;;;5.50;;
21848;SDS011;11089;49.852;19.700;2023-03-14T13:31:37;9.25;;;5.07;;
21848;SDS011;11089;49.852;19.700;2023-03-14T13:34:45;10.80;;;5.72;;
21848;SDS011;11089;49.852;19.700;2023-03-14T13:37:53;7.47;;;3.80;;
21848;SDS011;11089;49.852;19.700;2023-03-14T13:40:57;8.65;;;3.90;;
21848;SDS011;11089;49.852;19.700;2023-03-14T13:44:03;8.85;;;3.40;;
21848;SDS011;11089;49.852;19.700;2023-03-14T13:47:15;6.35;;;3.80;;
21848;SDS011;11089;49.852;19.700;2023-03-14T13:50:18;7.45;;;4.20;;
21848;SDS011;11089;49.852;19.700;2023-03-14T13:53:19;6.57;;;3.75;;
21848;SDS011;11089;49.852;19.700;2023-03-14T13:56:22;7.20;;;4.20;;
21848;SDS011;11089;49.852;19.700;2023-03-14T13:59:26;5.30;;;3.63;;
21848;SDS011;11089;49.852;19.700;2023-03-14T14:02:31;11.43;;;4.80;;
21848;SDS011;11089;49.852;19.700;2023-03-14T14:05:33;7.03;;;4.38;;
21848;SDS011;11089;49.852;19.700;2023-03-14T14:08:40;28.98;;;11.18;;
21848;SDS011;11089;49.852;19.700;2023-03-14T14:11:42;18.33;;;8.80;;
21848;SDS011;11089;49.852;19.700;2023-03-14T14:17:51;8.70;;;5.20;;
21848;SDS011;11089;49.852;19.700;2023-03-14T14:21:04;12.75;;;6.90;;
21848;SDS011;11089;49.852;19.700;2023-03-14T14:24:08;7.03;;;4.65;;
21848;SDS011;11089;49.852;19.700;2023-03-14T14:27:13;4.80;;;3.35;;
21848;SDS011;11089;49.852;19.700;2023-03-14T14:33:19;5.88;;;3.55;;
21848;SDS011;11089;49.852;19.700;2023-03-14T14:36:23;8.88;;;4.10;;
21848;SDS011;11089;49.852;19.700;2023-03-14T14:39:27;8.73;;;4.00;;
21848;SDS011;11089;49.852;19.700;2023-03-14T14:42:29;6.43;;;3.92;;
21848;SDS011;11089;49.852;19.700;2023-03-14T14:45:33;9.57;;;4.82;;
21848;SDS011;11089;49.852;19.700;2023-03-14T14:48:37;11.88;;;6.28;;
21848;SDS011;11089;49.852;19.700;2023-03-14T14:51:42;21.30;;;10.95;;
21848;SDS011;11089;49.852;19.700;2023-03-14T14:57:58;26.10;;;13.82;;
21848;SDS011;11089;49.852;19.700;2023-03-14T15:01:22;15.55;;;8.27;;
21848;SDS011;11089;49.852;19.700;2023-03-14T15:04:24;16.17;;;8.38;;
21848;SDS011;11089;49.852;19.700;2023-03-14T15:07:25;16.52;;;8.73;;
21848;SDS011;11089;49.852;19.700;2023-03-14T15:10:26;15.57;;;9.07;;
21848;SDS011;11089;49.852;19.700;2023-03-14T15:13:27;13.77;;;7.82;;
21848;SDS011;11089;49.852;19.700;2023-03-14T15:16:29;14.27;;;7.50;;
21848;SDS011;11089;49.852;19.700;2023-03-14T15:19:32;13.55;;;6.53;;
21848;SDS011;11089;49.852;19.700;2023-03-14T15:22:33;17.70;;;9.05;;
21848;SDS011;11089;49.852;19.700;2023-03-14T15:25:34;16.80;;;8.60;;
21848;SDS011;11089;49.852;19.700;2023-03-14T15:28:35;15.70;;;7.43;;
21848;SDS011;11089;49.852;19.700;2023-03-14T15:31:36;15.50;;;8.40;;
21848;SDS011;11089;49.852;19.700;2023-03-14T15:34:36;21.02;;;10.70;;
21848;SDS011;11089;49.852;19.700;2023-03-14T15:37:37;21.77;;;11.02;;
21848;SDS011;11089;49.852;19.700;2023-03-14T15:40:39;30.30;;;14.95;;
21848;SDS011;11089;49.852;19.700;2023-03-14T15:43:41;48.95;;;18.55;;
21848;SDS011;11089;49.852;19.700;2023-03-14T15:46:42;68.13;;;25.95;;
21848;SDS011;11089;49.852;19.700;2023-03-14T15:49:42;31.17;;;11.50;;
21848;SDS011;11089;49.852;19.700;2023-03-14T15:52:44;24.77;;;10.73;;
21848;SDS011;11089;49.852;19.700;2023-03-14T15:55:46;21.77;;;10.30;;
21848;SDS011;11089;49.852;19.700;2023-03-14T15:58:47;16.52;;;8.10;;
21848;SDS011;11089;49.852;19.700;2023-03-14T16:01:47;15.55;;;7.53;;
21848;SDS011;11089;49.852;19.700;2023-03-14T16:04:48;16.48;;;7.22;;
21848;SDS011;11089;49.852;19.700;2023-03-14T16:07:49;12.60;;;6.60;;
21848;SDS011;11089;49.852;19.700;2023-03-14T16:10:50;11.75;;;5.85;;
21848;SDS011;11089;49.852;19.700;2023-03-14T16:13:52;12.10;;;6.47;;
21848;SDS011;11089;49.852;19.700;2023-03-14T16:16:53;11.73;;;7.45;;
21848;SDS011;11089;49.852;19.700;2023-03-14T16:19:54;14.18;;;7.10;;
21848;SDS011;11089;49.852;19.700;2023-03-14T16:22:55;9.25;;;6.05;;
21848;SDS011;11089;49.852;19.700;2023-03-14T16:25:56;14.32;;;6.53;;
21848;SDS011;11089;49.852;19.700;2023-03-14T16:28:58;15.40;;;7.10;;
21848;SDS011;11089;49.852;19.700;2023-03-14T16:31:59;10.75;;;6.50;;
21848;SDS011;11089;49.852;19.700;2023-03-14T16:35:00;13.45;;;8.15;;
21848;SDS011;11089;49.852;19.700;2023-03-14T16:38:01;17.35;;;10.75;;
21848;SDS011;11089;49.852;19.700;2023-03-14T16:41:03;25.30;;;13.80;;
21848;SDS011;11089;49.852;19.700;2023-03-14T16:44:06;22.42;;;11.68;;
21848;SDS011;11089;49.852;19.700;2023-03-14T16:47:07;22.98;;;13.57;;
21848;SDS011;11089;49.852;19.700;2023-03-14T16:50:08;21.30;;;10.73;;
21848;SDS011;11089;49.852;19.700;2023-03-14T16:53:09;16.48;;;8.48;;
21848;SDS011;11089;49.852;19.700;2023-03-14T16:56:11;19.88;;;9.60;;
21848;SDS011;11089;49.852;19.700;2023-03-14T16:59:12;16.70;;;9.00;;
21848;SDS011;11089;49.852;19.700;2023-03-14T17:02:13;16.10;;;8.60;;
21848;SDS011;11089;49.852;19.700;2023-03-14T17:05:14;13.07;;;7.72;;
21848;SDS011;11089;49.852;19.700;2023-03-14T17:08:16;12.65;;;7.40;;
21848;SDS011;11089;49.852;19.700;2023-03-14T17:11:18;13.27;;;6.88;;
21848;SDS011;11089;49.852;19.700;2023-03-14T17:14:19;13.52;;;6.93;;
21848;SDS011;11089;49.852;19.700;2023-03-14T17:17:20;10.75;;;5.97;;
21848;SDS011;11089;49.852;19.700;2023-03-14T17:20:21;10.90;;;5.43;;
21848;SDS011;11089;49.852;19.700;2023-03-14T17:23:23;10.15;;;6.13;;
21848;SDS011;11089;49.852;19.700;2023-03-14T17:26:25;9.60;;;5.80;;
21848;SDS011;11089;49.852;19.700;2023-03-14T17:29:26;10.98;;;5.60;;
21848;SDS011;11089;49.852;19.700;2023-03-14T17:32:27;9.57;;;5.15;;
21848;SDS011;11089;49.852;19.700;2023-03-14T17:35:28;9.32;;;5.05;;
21848;SDS011;11089;49.852;19.700;2023-03-14T17:38:29;6.90;;;4.10;;
21848;SDS011;11089;49.852;19.700;2023-03-14T17:41:30;8.38;;;4.35;;
21848;SDS011;11089;49.852;19.700;2023-03-14T17:44:31;7.88;;;4.40;;
21848;SDS011;11089;49.852;19.700;2023-03-14T17:47:33;6.93;;;4.70;;
21848;SDS011;11089;49.852;19.700;2023-03-14T17:50:35;8.35;;;5.15;;
21848;SDS011;11089;49.852;19.700;2023-03-14T17:53:37;10.52;;;4.70;;
21848;SDS011;11089;49.852;19.700;2023-03-14T17:56:38;9.02;;;4.80;;
21848;SDS011;11089;49.852;19.700;2023-03-14T17:59:42;10.82;;;5.25;;
21848;SDS011;11089;49.852;19.700;2023-03-14T18:02:43;10.38;;;5.32;;
21848;SDS011;11089;49.852;19.700;2023-03-14T18:05:45;9.40;;;4.85;;
21848;SDS011;11089;49.852;19.700;2023-03-14T18:08:46;11.52;;;5.82;;
21848;SDS011;11089;49.852;19.700;2023-03-14T18:11:47;10.02;;;5.40;;
21848;SDS011;11089;49.852;19.700;2023-03-14T18:14:49;10.82;;;5.85;;
21848;SDS011;11089;49.852;19.700;2023-03-14T18:17:49;15.57;;;7.78;;
21848;SDS011;11089;49.852;19.700;2023-03-14T18:20:51;11.55;;;6.75;;
21848;SDS011;11089;49.852;19.700;2023-03-14T18:23:52;10.88;;;5.90;;
21848;SDS011;11089;49.852;19.700;2023-03-14T18:26:54;11.90;;;5.95;;
21848;SDS011;11089;49.852;19.700;2023-03-14T18:29:55;12.55;;;6.80;;
21848;SDS011;11089;49.852;19.700;2023-03-14T18:32:56;15.82;;;8.52;;
21848;SDS011;11089;49.852;19.700;2023-03-14T18:35:57;20.67;;;10.05;;
21848;SDS011;11089;49.852;19.700;2023-03-14T18:38:58;15.93;;;8.13;;
21848;SDS011;11089;49.852;19.700;2023-03-14T18:41:59;13.60;;;6.85;;
21848;SDS011;11089;49.852;19.700;2023-03-14T18:45:00;8.30;;;5.40;;
21848;SDS011;11089;49.852;19.700;2023-03-14T18:48:01;13.07;;;5.93;;
21848;SDS011;11089;49.852;19.700;2023-03-14T18:51:03;9.95;;;5.32;;
21848;SDS011;11089;49.852;19.700;2023-03-14T18:54:04;16.05;;;7.32;;
21848;SDS011;11089;49.852;19.700;2023-03-14T18:57:05;26.98;;;11.98;;
21848;SDS011;11089;49.852;19.700;2023-03-14T19:00:06;17.80;;;7.05;;
21848;SDS011;11089;49.852;19.700;2023-03-14T19:03:12;10.00;;;4.30;;